sensor_id;sensor_type;location;lat;lon;timestamp;temperature;humidity
28374;DHT22;15616;40.148;-102.718;2022-08-30T00:01:59;25.30;47.90
28374;DHT22;15616;40.148;-102.718;2022-08-30T00:04:25;25.30;48.00
28374;DHT22;15616;40.148;-102.718;2022-08-30T00:06:51;25.30;48.00
28374;DHT22;15616;40.148;-102.718;2022-08-30T00:09:17;25.30;48.00
28374;DHT22;15616;40.148;-102.718;2022-08-30T00:11:43;25.30;48.00
28374;DHT22;15616;40.148;-102.718;2022-08-30T00:14:09;25.30;48.10
28374;DHT22;15616;40.148;-102.718;2022-08-30T00:16:35;25.30;48.10
28374;DHT22;15616;40.148;-102.718;2022-08-30T00:19:01;25.30;48.10
28374;DHT22;15616;40.148;-102.718;2022-08-30T00:21:27;25.30;48.20
28374;DHT22;15616;40.148;-102.718;2022-08-30T00:23:53;25.30;48.20
28374;DHT22;15616;40.148;-102.718;2022-08-30T00:26:19;25.30;48.30
28374;DHT22;15616;40.148;-102.718;2022-08-30T00:28:46;25.30;48.30
28374;DHT22;15616;40.148;-102.718;2022-08-30T00:31:12;25.30;48.30
28374;DHT22;15616;40.148;-102.718;2022-08-30T00:33:38;25.30;48.30
28374;DHT22;15616;40.148;-102.718;2022-08-30T00:36:04;25.30;48.30
28374;DHT22;15616;40.148;-102.718;2022-08-30T00:38:30;25.30;48.30
28374;DHT22;15616;40.148;-102.718;2022-08-30T00:40:56;25.30;48.30
28374;DHT22;15616;40.148;-102.718;2022-08-30T00:43:29;25.20;48.30
28374;DHT22;15616;40.148;-102.718;2022-08-30T00:45:56;25.30;48.40
28374;DHT22;15616;40.148;-102.718;2022-08-30T00:48:23;25.20;48.40
28374;DHT22;15616;40.148;-102.718;2022-08-30T00:50:55;25.20;48.40
28374;DHT22;15616;40.148;-102.718;2022-08-30T00:53:26;25.20;48.40
28374;DHT22;15616;40.148;-102.718;2022-08-30T00:55:53;25.20;48.40
28374;DHT22;15616;40.148;-102.718;2022-08-30T00:58:24;25.20;48.40
28374;DHT22;15616;40.148;-102.718;2022-08-30T01:00:54;25.20;48.30
28374;DHT22;15616;40.148;-102.718;2022-08-30T01:03:21;25.20;48.50
28374;DHT22;15616;40.148;-102.718;2022-08-30T01:05:49;25.20;48.50
28374;DHT22;15616;40.148;-102.718;2022-08-30T01:08:17;25.20;48.50
28374;DHT22;15616;40.148;-102.718;2022-08-30T01:10:45;25.20;48.50
28374;DHT22;15616;40.148;-102.718;2022-08-30T01:13:11;25.20;48.50
28374;DHT22;15616;40.148;-102.718;2022-08-30T01:15:39;25.20;48.50
28374;DHT22;15616;40.148;-102.718;2022-08-30T01:18:06;25.20;48.50
28374;DHT22;15616;40.148;-102.718;2022-08-30T01:23:18;25.20;48.50
28374;DHT22;15616;40.148;-102.718;2022-08-30T01:25:47;25.20;48.50
28374;DHT22;15616;40.148;-102.718;2022-08-30T01:28:19;25.20;48.50
28374;DHT22;15616;40.148;-102.718;2022-08-30T01:30:45;25.20;48.60
28374;DHT22;15616;40.148;-102.718;2022-08-30T01:33:11;25.20;48.60
28374;DHT22;15616;40.148;-102.718;2022-08-30T01:35:51;25.20;48.60
28374;DHT22;15616;40.148;-102.718;2022-08-30T01:38:21;25.20;48.60
28374;DHT22;15616;40.148;-102.718;2022-08-30T01:40:49;25.20;48.70
28374;DHT22;15616;40.148;-102.718;2022-08-30T01:43:15;25.20;48.70
28374;DHT22;15616;40.148;-102.718;2022-08-30T01:45:42;25.20;49.30
28374;DHT22;15616;40.148;-102.718;2022-08-30T01:48:09;25.20;48.60
28374;DHT22;15616;40.148;-102.718;2022-08-30T01:50:39;25.20;48.70
28374;DHT22;15616;40.148;-102.718;2022-08-30T01:53:05;25.20;48.60
28374;DHT22;15616;40.148;-102.718;2022-08-30T01:55:31;25.10;48.50
28374;DHT22;15616;40.148;-102.718;2022-08-30T01:57:57;25.10;48.60
28374;DHT22;15616;40.148;-102.718;2022-08-30T02:00:23;25.10;48.60
28374;DHT22;15616;40.148;-102.718;2022-08-30T02:02:49;25.10;49.30
28374;DHT22;15616;40.148;-102.718;2022-08-30T02:05:16;25.10;48.70
28374;DHT22;15616;40.148;-102.718;2022-08-30T02:07:42;25.10;48.70
28374;DHT22;15616;40.148;-102.718;2022-08-30T02:10:08;25.10;48.70
28374;DHT22;15616;40.148;-102.718;2022-08-30T02:12:34;25.10;48.70
28374;DHT22;15616;40.148;-102.718;2022-08-30T02:15:00;25.10;48.70
28374;DHT22;15616;40.148;-102.718;2022-08-30T02:17:26;25.20;48.80
28374;DHT22;15616;40.148;-102.718;2022-08-30T02:19:52;25.10;48.70
28374;DHT22;15616;40.148;-102.718;2022-08-30T02:22:18;25.10;48.70
28374;DHT22;15616;40.148;-102.718;2022-08-30T02:24:45;25.10;48.80
28374;DHT22;15616;40.148;-102.718;2022-08-30T02:27:11;25.10;48.80
28374;DHT22;15616;40.148;-102.718;2022-08-30T02:29:37;25.10;48.80
28374;DHT22;15616;40.148;-102.718;2022-08-30T02:32:03;25.10;48.80
28374;DHT22;15616;40.148;-102.718;2022-08-30T02:34:29;25.10;48.80
28374;DHT22;15616;40.148;-102.718;2022-08-30T02:36:55;25.10;49.50
28374;DHT22;15616;40.148;-102.718;2022-08-30T02:39:21;25.10;48.90
28374;DHT22;15616;40.148;-102.718;2022-08-30T02:41:47;25.10;48.90
28374;DHT22;15616;40.148;-102.718;2022-08-30T02:44:13;25.10;48.90
28374;DHT22;15616;40.148;-102.718;2022-08-30T02:46:39;25.10;48.90
28374;DHT22;15616;40.148;-102.718;2022-08-30T02:49:05;25.10;48.90
28374;DHT22;15616;40.148;-102.718;2022-08-30T02:51:33;25.10;48.90
28374;DHT22;15616;40.148;-102.718;2022-08-30T02:53:59;25.10;48.90
28374;DHT22;15616;40.148;-102.718;2022-08-30T02:56:25;25.10;48.90
28374;DHT22;15616;40.148;-102.718;2022-08-30T02:58:53;25.10;49.00
28374;DHT22;15616;40.148;-102.718;2022-08-30T03:01:19;25.10;49.00
28374;DHT22;15616;40.148;-102.718;2022-08-30T03:03:46;25.10;49.00
28374;DHT22;15616;40.148;-102.718;2022-08-30T03:06:12;25.10;48.90
28374;DHT22;15616;40.148;-102.718;2022-08-30T03:08:38;25.10;48.90
28374;DHT22;15616;40.148;-102.718;2022-08-30T03:11:05;25.10;48.90
28374;DHT22;15616;40.148;-102.718;2022-08-30T03:13:31;25.10;48.90
28374;DHT22;15616;40.148;-102.718;2022-08-30T03:15:57;25.10;49.00
28374;DHT22;15616;40.148;-102.718;2022-08-30T03:18:24;25.10;49.00
28374;DHT22;15616;40.148;-102.718;2022-08-30T03:20:50;25.10;49.00
28374;DHT22;15616;40.148;-102.718;2022-08-30T03:23:17;25.10;49.10
28374;DHT22;15616;40.148;-102.718;2022-08-30T03:25:43;25.10;49.10
28374;DHT22;15616;40.148;-102.718;2022-08-30T03:28:10;25.10;49.10
28374;DHT22;15616;40.148;-102.718;2022-08-30T03:30:36;25.10;49.00
28374;DHT22;15616;40.148;-102.718;2022-08-30T03:33:02;25.10;49.00
28374;DHT22;15616;40.148;-102.718;2022-08-30T03:35:29;25.10;49.00
28374;DHT22;15616;40.148;-102.718;2022-08-30T03:37:56;25.10;49.00
28374;DHT22;15616;40.148;-102.718;2022-08-30T03:40:24;25.10;49.00
28374;DHT22;15616;40.148;-102.718;2022-08-30T03:42:50;25.10;49.10
28374;DHT22;15616;40.148;-102.718;2022-08-30T03:45:17;25.10;49.10
28374;DHT22;15616;40.148;-102.718;2022-08-30T03:47:44;25.10;49.00
28374;DHT22;15616;40.148;-102.718;2022-08-30T03:50:12;25.10;49.00
28374;DHT22;15616;40.148;-102.718;2022-08-30T03:52:38;25.10;49.00
28374;DHT22;15616;40.148;-102.718;2022-08-30T03:55:05;25.10;48.90
28374;DHT22;15616;40.148;-102.718;2022-08-30T03:57:31;25.10;49.00
28374;DHT22;15616;40.148;-102.718;2022-08-30T03:59:58;25.10;49.00
28374;DHT22;15616;40.148;-102.718;2022-08-30T04:02:24;25.10;49.00
28374;DHT22;15616;40.148;-102.718;2022-08-30T04:04:50;25.10;49.00
28374;DHT22;15616;40.148;-102.718;2022-08-30T04:07:16;25.10;49.10
28374;DHT22;15616;40.148;-102.718;2022-08-30T04:09:44;25.10;49.10
28374;DHT22;15616;40.148;-102.718;2022-08-30T04:12:10;25.10;49.10
28374;DHT22;15616;40.148;-102.718;2022-08-30T04:14:36;25.10;49.10
28374;DHT22;15616;40.148;-102.718;2022-08-30T04:17:02;25.10;49.10
28374;DHT22;15616;40.148;-102.718;2022-08-30T04:19:28;25.10;49.10
28374;DHT22;15616;40.148;-102.718;2022-08-30T04:21:54;25.10;49.20
28374;DHT22;15616;40.148;-102.718;2022-08-30T04:24:22;25.10;49.20
28374;DHT22;15616;40.148;-102.718;2022-08-30T04:26:48;25.10;49.10
28374;DHT22;15616;40.148;-102.718;2022-08-30T04:29:14;25.10;49.10
28374;DHT22;15616;40.148;-102.718;2022-08-30T04:31:42;25.10;49.20
28374;DHT22;15616;40.148;-102.718;2022-08-30T04:34:10;25.10;49.20
28374;DHT22;15616;40.148;-102.718;2022-08-30T04:36:36;25.10;49.20
28374;DHT22;15616;40.148;-102.718;2022-08-30T04:39:03;25.10;49.20
28374;DHT22;15616;40.148;-102.718;2022-08-30T04:41:28;25.10;50.00
28374;DHT22;15616;40.148;-102.718;2022-08-30T04:43:55;25.10;49.20
28374;DHT22;15616;40.148;-102.718;2022-08-30T04:46:21;25.10;49.20
28374;DHT22;15616;40.148;-102.718;2022-08-30T04:48:47;25.10;49.20
28374;DHT22;15616;40.148;-102.718;2022-08-30T04:51:16;25.10;49.30
28374;DHT22;15616;40.148;-102.718;2022-08-30T04:53:42;25.10;49.30
28374;DHT22;15616;40.148;-102.718;2022-08-30T04:56:10;25.10;49.30
28374;DHT22;15616;40.148;-102.718;2022-08-30T04:58:37;25.10;49.40
28374;DHT22;15616;40.148;-102.718;2022-08-30T05:01:03;25.00;49.40
28374;DHT22;15616;40.148;-102.718;2022-08-30T05:03:30;25.00;49.40
28374;DHT22;15616;40.148;-102.718;2022-08-30T05:05:56;25.00;49.40
28374;DHT22;15616;40.148;-102.718;2022-08-30T05:08:22;25.00;49.40
28374;DHT22;15616;40.148;-102.718;2022-08-30T05:10:50;25.00;49.50
28374;DHT22;15616;40.148;-102.718;2022-08-30T05:13:17;25.00;49.50
28374;DHT22;15616;40.148;-102.718;2022-08-30T05:15:44;25.00;49.50
28374;DHT22;15616;40.148;-102.718;2022-08-30T05:18:10;25.00;50.20
28374;DHT22;15616;40.148;-102.718;2022-08-30T05:20:37;25.00;49.50
28374;DHT22;15616;40.148;-102.718;2022-08-30T05:23:03;25.00;49.50
28374;DHT22;15616;40.148;-102.718;2022-08-30T05:25:32;25.00;49.60
28374;DHT22;15616;40.148;-102.718;2022-08-30T05:27:59;25.00;49.60
28374;DHT22;15616;40.148;-102.718;2022-08-30T05:30:26;25.00;49.60
28374;DHT22;15616;40.148;-102.718;2022-08-30T05:32:53;25.00;49.60
28374;DHT22;15616;40.148;-102.718;2022-08-30T05:35:20;25.00;49.60
28374;DHT22;15616;40.148;-102.718;2022-08-30T05:37:47;25.00;49.60
28374;DHT22;15616;40.148;-102.718;2022-08-30T05:40:13;25.00;49.60
28374;DHT22;15616;40.148;-102.718;2022-08-30T05:42:46;25.00;49.60
28374;DHT22;15616;40.148;-102.718;2022-08-30T05:45:13;25.00;49.60
28374;DHT22;15616;40.148;-102.718;2022-08-30T05:47:39;25.00;49.70
28374;DHT22;15616;40.148;-102.718;2022-08-30T05:50:06;25.00;49.70
28374;DHT22;15616;40.148;-102.718;2022-08-30T05:52:36;25.00;49.70
28374;DHT22;15616;40.148;-102.718;2022-08-30T05:55:03;24.90;49.60
28374;DHT22;15616;40.148;-102.718;2022-08-30T05:57:37;24.90;49.70
28374;DHT22;15616;40.148;-102.718;2022-08-30T06:00:07;25.00;49.70
28374;DHT22;15616;40.148;-102.718;2022-08-30T06:02:33;24.90;49.80
28374;DHT22;15616;40.148;-102.718;2022-08-30T06:05:01;24.90;49.80
28374;DHT22;15616;40.148;-102.718;2022-08-30T06:07:28;24.90;49.90
28374;DHT22;15616;40.148;-102.718;2022-08-30T06:09:54;24.90;49.90
28374;DHT22;15616;40.148;-102.718;2022-08-30T06:12:19;24.90;49.90
28374;DHT22;15616;40.148;-102.718;2022-08-30T06:14:46;24.90;49.90
28374;DHT22;15616;40.148;-102.718;2022-08-30T06:17:12;24.90;49.90
28374;DHT22;15616;40.148;-102.718;2022-08-30T06:19:38;24.90;50.00
28374;DHT22;15616;40.148;-102.718;2022-08-30T06:22:04;24.90;50.00
28374;DHT22;15616;40.148;-102.718;2022-08-30T06:24:30;24.90;50.00
28374;DHT22;15616;40.148;-102.718;2022-08-30T06:26:56;24.90;50.00
28374;DHT22;15616;40.148;-102.718;2022-08-30T06:29:22;24.90;50.00
28374;DHT22;15616;40.148;-102.718;2022-08-30T06:31:49;24.90;50.10
28374;DHT22;15616;40.148;-102.718;2022-08-30T06:34:15;24.90;50.10
28374;DHT22;15616;40.148;-102.718;2022-08-30T06:36:41;24.90;50.10
28374;DHT22;15616;40.148;-102.718;2022-08-30T06:39:08;24.90;50.10
28374;DHT22;15616;40.148;-102.718;2022-08-30T06:41:37;24.90;50.20
28374;DHT22;15616;40.148;-102.718;2022-08-30T06:44:05;24.90;50.20
28374;DHT22;15616;40.148;-102.718;2022-08-30T06:46:34;24.90;50.30
28374;DHT22;15616;40.148;-102.718;2022-08-30T06:49:00;24.90;50.30
28374;DHT22;15616;40.148;-102.718;2022-08-30T06:51:29;25.00;50.30
28374;DHT22;15616;40.148;-102.718;2022-08-30T06:53:56;25.00;50.30
28374;DHT22;15616;40.148;-102.718;2022-08-30T06:56:23;25.00;50.30
28374;DHT22;15616;40.148;-102.718;2022-08-30T06:58:50;25.00;50.30
28374;DHT22;15616;40.148;-102.718;2022-08-30T07:01:20;25.00;51.00
28374;DHT22;15616;40.148;-102.718;2022-08-30T07:03:46;25.00;50.30
28374;DHT22;15616;40.148;-102.718;2022-08-30T07:06:13;25.10;50.20
28374;DHT22;15616;40.148;-102.718;2022-08-30T07:08:42;25.10;50.20
28374;DHT22;15616;40.148;-102.718;2022-08-30T07:11:08;25.10;50.10
28374;DHT22;15616;40.148;-102.718;2022-08-30T07:13:35;25.10;50.10
28374;DHT22;15616;40.148;-102.718;2022-08-30T07:16:08;25.10;50.10
28374;DHT22;15616;40.148;-102.718;2022-08-30T07:18:34;25.20;50.30
28374;DHT22;15616;40.148;-102.718;2022-08-30T07:21:20;25.20;50.20
28374;DHT22;15616;40.148;-102.718;2022-08-30T07:23:47;25.20;50.20
28374;DHT22;15616;40.148;-102.718;2022-08-30T07:26:17;25.20;50.20
28374;DHT22;15616;40.148;-102.718;2022-08-30T07:28:44;25.20;50.10
28374;DHT22;15616;40.148;-102.718;2022-08-30T07:31:11;25.20;50.90
28374;DHT22;15616;40.148;-102.718;2022-08-30T07:33:37;25.20;50.10
28374;DHT22;15616;40.148;-102.718;2022-08-30T07:36:05;25.20;50.10
28374;DHT22;15616;40.148;-102.718;2022-08-30T07:38:32;25.20;50.10
28374;DHT22;15616;40.148;-102.718;2022-08-30T07:40:58;25.30;50.10
28374;DHT22;15616;40.148;-102.718;2022-08-30T07:43:28;25.30;50.10
28374;DHT22;15616;40.148;-102.718;2022-08-30T07:45:54;25.30;50.00
28374;DHT22;15616;40.148;-102.718;2022-08-30T07:48:22;25.30;50.00
28374;DHT22;15616;40.148;-102.718;2022-08-30T07:50:48;25.30;50.00
28374;DHT22;15616;40.148;-102.718;2022-08-30T07:53:14;25.30;50.00
28374;DHT22;15616;40.148;-102.718;2022-08-30T07:55:40;25.30;50.00
28374;DHT22;15616;40.148;-102.718;2022-08-30T07:58:06;25.30;50.00
28374;DHT22;15616;40.148;-102.718;2022-08-30T08:00:32;25.30;50.00
28374;DHT22;15616;40.148;-102.718;2022-08-30T08:03:06;25.30;50.10
28374;DHT22;15616;40.148;-102.718;2022-08-30T08:05:41;25.30;50.10
28374;DHT22;15616;40.148;-102.718;2022-08-30T08:08:07;25.30;50.00
28374;DHT22;15616;40.148;-102.718;2022-08-30T08:10:36;25.30;50.00
28374;DHT22;15616;40.148;-102.718;2022-08-30T08:13:02;25.30;49.90
28374;DHT22;15616;40.148;-102.718;2022-08-30T08:15:28;25.30;49.90
28374;DHT22;15616;40.148;-102.718;2022-08-30T08:17:54;25.30;49.90
28374;DHT22;15616;40.148;-102.718;2022-08-30T08:20:20;25.30;49.80
28374;DHT22;15616;40.148;-102.718;2022-08-30T08:22:47;25.40;49.90
28374;DHT22;15616;40.148;-102.718;2022-08-30T08:25:12;25.40;49.90
28374;DHT22;15616;40.148;-102.718;2022-08-30T08:27:39;25.30;49.80
28374;DHT22;15616;40.148;-102.718;2022-08-30T08:30:06;25.30;49.80
28374;DHT22;15616;40.148;-102.718;2022-08-30T08:32:32;25.30;49.80
28374;DHT22;15616;40.148;-102.718;2022-08-30T08:34:58;25.30;49.80
28374;DHT22;15616;40.148;-102.718;2022-08-30T08:37:24;25.40;49.90
28374;DHT22;15616;40.148;-102.718;2022-08-30T08:39:50;25.40;49.90
28374;DHT22;15616;40.148;-102.718;2022-08-30T08:42:40;25.40;49.90
28374;DHT22;15616;40.148;-102.718;2022-08-30T08:45:14;25.40;49.70
28374;DHT22;15616;40.148;-102.718;2022-08-30T08:48:02;25.40;49.80
28374;DHT22;15616;40.148;-102.718;2022-08-30T08:50:29;25.40;49.70
28374;DHT22;15616;40.148;-102.718;2022-08-30T08:53:03;25.40;49.70
28374;DHT22;15616;40.148;-102.718;2022-08-30T08:55:51;25.40;49.70
28374;DHT22;15616;40.148;-102.718;2022-08-30T08:58:27;25.40;49.60
28374;DHT22;15616;40.148;-102.718;2022-08-30T09:00:55;25.40;49.50
28374;DHT22;15616;40.148;-102.718;2022-08-30T09:03:25;25.50;49.50
28374;DHT22;15616;40.148;-102.718;2022-08-30T09:05:52;25.50;49.50
28374;DHT22;15616;40.148;-102.718;2022-08-30T09:08:19;25.60;49.40
28374;DHT22;15616;40.148;-102.718;2022-08-30T09:10:59;25.60;49.40
28374;DHT22;15616;40.148;-102.718;2022-08-30T09:13:26;25.50;49.30
28374;DHT22;15616;40.148;-102.718;2022-08-30T09:15:55;25.50;49.30
28374;DHT22;15616;40.148;-102.718;2022-08-30T09:18:44;25.50;49.20
28374;DHT22;15616;40.148;-102.718;2022-08-30T09:21:11;25.60;49.20
28374;DHT22;15616;40.148;-102.718;2022-08-30T09:23:53;25.50;49.30
28374;DHT22;15616;40.148;-102.718;2022-08-30T09:26:32;25.50;49.30
28374;DHT22;15616;40.148;-102.718;2022-08-30T09:28:59;25.50;49.30
28374;DHT22;15616;40.148;-102.718;2022-08-30T09:31:28;25.50;49.20
28374;DHT22;15616;40.148;-102.718;2022-08-30T09:36:38;25.60;49.10
28374;DHT22;15616;40.148;-102.718;2022-08-30T09:39:13;25.60;49.00
28374;DHT22;15616;40.148;-102.718;2022-08-30T09:41:42;25.60;49.10
28374;DHT22;15616;40.148;-102.718;2022-08-30T09:44:10;25.50;49.00
28374;DHT22;15616;40.148;-102.718;2022-08-30T09:46:44;25.60;49.10
28374;DHT22;15616;40.148;-102.718;2022-08-30T09:57:49;25.50;49.20
28374;DHT22;15616;40.148;-102.718;2022-08-30T10:00:29;25.50;49.20
28374;DHT22;15616;40.148;-102.718;2022-08-30T10:03:21;25.50;49.30
28374;DHT22;15616;40.148;-102.718;2022-08-30T10:06:40;25.50;49.30
28374;DHT22;15616;40.148;-102.718;2022-08-30T10:09:32;25.50;49.30
28374;DHT22;15616;40.148;-102.718;2022-08-30T10:14:43;25.50;49.40
28374;DHT22;15616;40.148;-102.718;2022-08-30T10:17:33;25.40;49.30
28374;DHT22;15616;40.148;-102.718;2022-08-30T10:20:22;25.50;49.30
28374;DHT22;15616;40.148;-102.718;2022-08-30T10:23:03;25.50;49.20
28374;DHT22;15616;40.148;-102.718;2022-08-30T10:28:42;25.60;49.10
28374;DHT22;15616;40.148;-102.718;2022-08-30T10:33:56;25.60;49.10
28374;DHT22;15616;40.148;-102.718;2022-08-30T10:36:31;25.60;49.00
28374;DHT22;15616;40.148;-102.718;2022-08-30T10:38:57;25.60;48.90
28374;DHT22;15616;40.148;-102.718;2022-08-30T10:41:40;25.60;49.00
28374;DHT22;15616;40.148;-102.718;2022-08-30T10:49:28;25.60;49.00
28374;DHT22;15616;40.148;-102.718;2022-08-30T10:55:01;25.70;48.90
28374;DHT22;15616;40.148;-102.718;2022-08-30T10:57:29;25.60;48.80
28374;DHT22;15616;40.148;-102.718;2022-08-30T11:00:11;25.60;48.80
28374;DHT22;15616;40.148;-102.718;2022-08-30T11:11:16;25.60;48.70
28374;DHT22;15616;40.148;-102.718;2022-08-30T11:13:46;25.70;48.60
28374;DHT22;15616;40.148;-102.718;2022-08-30T11:16:14;25.70;48.60
28374;DHT22;15616;40.148;-102.718;2022-08-30T11:18:51;25.70;48.60
28374;DHT22;15616;40.148;-102.718;2022-08-30T11:21:31;25.70;48.50
28374;DHT22;15616;40.148;-102.718;2022-08-30T11:24:11;25.70;48.50
28374;DHT22;15616;40.148;-102.718;2022-08-30T11:29:47;25.80;48.50
28374;DHT22;15616;40.148;-102.718;2022-08-30T11:42:49;25.80;48.20
28374;DHT22;15616;40.148;-102.718;2022-08-30T11:47:50;25.90;48.10
28374;DHT22;15616;40.148;-102.718;2022-08-30T11:56:06;25.90;48.10
28374;DHT22;15616;40.148;-102.718;2022-08-30T12:01:37;25.90;47.90
28374;DHT22;15616;40.148;-102.718;2022-08-30T12:04:36;25.90;48.00
28374;DHT22;15616;40.148;-102.718;2022-08-30T12:07:05;25.90;47.90
28374;DHT22;15616;40.148;-102.718;2022-08-30T12:14:47;25.90;47.70
28374;DHT22;15616;40.148;-102.718;2022-08-30T12:20:28;25.90;47.70
28374;DHT22;15616;40.148;-102.718;2022-08-30T12:22:56;26.00;47.50
28374;DHT22;15616;40.148;-102.718;2022-08-30T12:25:37;26.00;47.60
28374;DHT22;15616;40.148;-102.718;2022-08-30T12:28:29;26.00;47.50
28374;DHT22;15616;40.148;-102.718;2022-08-30T12:31:13;25.90;47.30
28374;DHT22;15616;40.148;-102.718;2022-08-30T12:33:46;26.00;47.40
28374;DHT22;15616;40.148;-102.718;2022-08-30T12:36:34;25.90;47.30
28374;DHT22;15616;40.148;-102.718;2022-08-30T12:39:26;26.00;47.30
28374;DHT22;15616;40.148;-102.718;2022-08-30T12:41:52;26.10;47.20
28374;DHT22;15616;40.148;-102.718;2022-08-30T12:44:24;26.00;47.20
28374;DHT22;15616;40.148;-102.718;2022-08-30T12:46:57;26.10;47.10
28374;DHT22;15616;40.148;-102.718;2022-08-30T12:49:27;26.00;47.00
28374;DHT22;15616;40.148;-102.718;2022-08-30T12:51:55;26.00;47.00
28374;DHT22;15616;40.148;-102.718;2022-08-30T12:54:28;26.10;47.00
28374;DHT22;15616;40.148;-102.718;2022-08-30T12:57:01;26.10;46.80
28374;DHT22;15616;40.148;-102.718;2022-08-30T12:59:52;26.10;46.90
28374;DHT22;15616;40.148;-102.718;2022-08-30T13:02:26;26.10;46.90
28374;DHT22;15616;40.148;-102.718;2022-08-30T13:04:53;26.10;47.00
28374;DHT22;15616;40.148;-102.718;2022-08-30T13:07:26;26.00;46.90
28374;DHT22;15616;40.148;-102.718;2022-08-30T13:10:08;26.10;46.90
28374;DHT22;15616;40.148;-102.718;2022-08-30T13:12:38;26.00;46.90
28374;DHT22;15616;40.148;-102.718;2022-08-30T13:15:19;26.00;47.00
28374;DHT22;15616;40.148;-102.718;2022-08-30T13:20:44;26.10;46.80
28374;DHT22;15616;40.148;-102.718;2022-08-30T13:23:21;26.10;46.90
28374;DHT22;15616;40.148;-102.718;2022-08-30T13:25:48;26.10;46.80
28374;DHT22;15616;40.148;-102.718;2022-08-30T13:28:14;26.10;46.70
28374;DHT22;15616;40.148;-102.718;2022-08-30T13:30:40;26.10;46.70
28374;DHT22;15616;40.148;-102.718;2022-08-30T13:33:06;26.10;46.70
28374;DHT22;15616;40.148;-102.718;2022-08-30T13:35:35;26.10;46.60
28374;DHT22;15616;40.148;-102.718;2022-08-30T13:38:01;26.10;46.50
28374;DHT22;15616;40.148;-102.718;2022-08-30T13:40:28;26.10;46.50
28374;DHT22;15616;40.148;-102.718;2022-08-30T13:42:55;26.10;46.60
28374;DHT22;15616;40.148;-102.718;2022-08-30T13:45:20;26.10;46.40
28374;DHT22;15616;40.148;-102.718;2022-08-30T13:47:47;26.10;46.40
28374;DHT22;15616;40.148;-102.718;2022-08-30T13:50:14;26.10;46.30
28374;DHT22;15616;40.148;-102.718;2022-08-30T13:52:40;26.20;46.30
28374;DHT22;15616;40.148;-102.718;2022-08-30T13:55:07;26.20;46.20
28374;DHT22;15616;40.148;-102.718;2022-08-30T13:57:33;26.20;46.20
28374;DHT22;15616;40.148;-102.718;2022-08-30T13:59:59;26.20;46.20
28374;DHT22;15616;40.148;-102.718;2022-08-30T14:02:24;26.20;46.20
28374;DHT22;15616;40.148;-102.718;2022-08-30T14:04:51;26.20;46.20
28374;DHT22;15616;40.148;-102.718;2022-08-30T14:07:16;26.10;46.20
28374;DHT22;15616;40.148;-102.718;2022-08-30T14:09:42;26.20;46.20
28374;DHT22;15616;40.148;-102.718;2022-08-30T14:12:08;26.20;46.20
28374;DHT22;15616;40.148;-102.718;2022-08-30T14:14:34;26.20;46.10
28374;DHT22;15616;40.148;-102.718;2022-08-30T14:17:00;26.20;46.00
28374;DHT22;15616;40.148;-102.718;2022-08-30T14:19:26;26.20;46.00
28374;DHT22;15616;40.148;-102.718;2022-08-30T14:21:52;26.20;45.90
28374;DHT22;15616;40.148;-102.718;2022-08-30T14:24:18;26.20;45.80
28374;DHT22;15616;40.148;-102.718;2022-08-30T14:26:47;26.30;45.80
28374;DHT22;15616;40.148;-102.718;2022-08-30T14:29:18;26.30;45.70
28374;DHT22;15616;40.148;-102.718;2022-08-30T14:31:46;26.40;45.70
28374;DHT22;15616;40.148;-102.718;2022-08-30T14:34:14;26.30;45.50
28374;DHT22;15616;40.148;-102.718;2022-08-30T14:36:42;26.40;45.40
28374;DHT22;15616;40.148;-102.718;2022-08-30T14:39:11;26.40;45.40
28374;DHT22;15616;40.148;-102.718;2022-08-30T14:41:51;26.40;45.60
28374;DHT22;15616;40.148;-102.718;2022-08-30T14:44:19;26.30;45.50
28374;DHT22;15616;40.148;-102.718;2022-08-30T14:46:45;26.30;45.60
28374;DHT22;15616;40.148;-102.718;2022-08-30T14:49:12;26.30;45.60
28374;DHT22;15616;40.148;-102.718;2022-08-30T14:51:39;26.30;45.60
28374;DHT22;15616;40.148;-102.718;2022-08-30T14:54:06;26.30;45.60
28374;DHT22;15616;40.148;-102.718;2022-08-30T14:56:32;26.30;45.70
28374;DHT22;15616;40.148;-102.718;2022-08-30T14:58:58;26.20;45.70
28374;DHT22;15616;40.148;-102.718;2022-08-30T15:01:26;26.20;45.70
28374;DHT22;15616;40.148;-102.718;2022-08-30T15:03:52;26.20;45.70
28374;DHT22;15616;40.148;-102.718;2022-08-30T15:06:18;26.20;45.60
28374;DHT22;15616;40.148;-102.718;2022-08-30T15:08:44;26.30;45.60
28374;DHT22;15616;40.148;-102.718;2022-08-30T15:11:13;26.20;45.50
28374;DHT22;15616;40.148;-102.718;2022-08-30T15:13:40;26.20;45.50
28374;DHT22;15616;40.148;-102.718;2022-08-30T15:16:20;26.20;45.50
28374;DHT22;15616;40.148;-102.718;2022-08-30T15:18:46;26.20;45.50
28374;DHT22;15616;40.148;-102.718;2022-08-30T15:21:12;26.20;45.50
28374;DHT22;15616;40.148;-102.718;2022-08-30T15:23:39;26.20;45.50
28374;DHT22;15616;40.148;-102.718;2022-08-30T15:26:06;26.20;45.40
28374;DHT22;15616;40.148;-102.718;2022-08-30T15:28:32;26.20;45.40
28374;DHT22;15616;40.148;-102.718;2022-08-30T15:30:58;26.20;45.40
28374;DHT22;15616;40.148;-102.718;2022-08-30T15:33:24;26.20;45.40
28374;DHT22;15616;40.148;-102.718;2022-08-30T15:35:51;26.20;45.50
28374;DHT22;15616;40.148;-102.718;2022-08-30T15:38:18;26.20;45.40
28374;DHT22;15616;40.148;-102.718;2022-08-30T15:40:47;26.20;45.40
28374;DHT22;15616;40.148;-102.718;2022-08-30T15:43:13;26.20;45.30
28374;DHT22;15616;40.148;-102.718;2022-08-30T15:45:39;26.20;45.40
28374;DHT22;15616;40.148;-102.718;2022-08-30T15:48:05;26.20;45.40
28374;DHT22;15616;40.148;-102.718;2022-08-30T15:50:31;26.20;45.40
28374;DHT22;15616;40.148;-102.718;2022-08-30T15:52:57;26.20;45.30
28374;DHT22;15616;40.148;-102.718;2022-08-30T15:55:23;26.20;45.30
28374;DHT22;15616;40.148;-102.718;2022-08-30T15:57:49;26.20;45.30
28374;DHT22;15616;40.148;-102.718;2022-08-30T16:00:15;26.20;45.30
28374;DHT22;15616;40.148;-102.718;2022-08-30T16:02:41;26.20;45.30
28374;DHT22;15616;40.148;-102.718;2022-08-30T16:05:08;26.20;45.20
28374;DHT22;15616;40.148;-102.718;2022-08-30T16:07:34;26.20;45.30
28374;DHT22;15616;40.148;-102.718;2022-08-30T16:10:00;26.20;45.30
28374;DHT22;15616;40.148;-102.718;2022-08-30T16:12:26;26.10;45.20
28374;DHT22;15616;40.148;-102.718;2022-08-30T16:14:52;26.10;45.20